Time;durP1;ratioP1;P1;durP2;ratioP2;P2;SDS_P1;SDS_P2;PMS_P1;PMS_P2;Temp;Humidity;BMP_temperature;BMP_pressure;BME280_temperature;BME280_humidity;BME280_pressure;Samples;Min_cycle;Max_cycle;Signal;HPM_P1;HPM_P2
2023/09/24 00:00:56;;;;;;;1.70;1.60;;;;;;;12.73;nan;100226.41;5039436;28;20214;-75
2023/09/24 00:03:22;;;;;;;1.70;1.30;;;;;;;12.71;nan;100236.19;5036097;28;20224;-75
2023/09/24 00:05:47;;;;;;;2.17;1.70;;;;;;;12.71;nan;100241.47;5035334;28;20524;-75
2023/09/24 00:08:13;;;;;;;1.50;1.30;;;;;;;12.68;nan;100237.22;5036656;28;20220;-76
2023/09/24 00:10:38;;;;;;;1.47;1.37;;;;;;;12.67;nan;100251.34;5039509;28;20197;-75
2023/09/24 00:13:04;;;;;;;4.40;1.30;;;;;;;12.66;nan;100248.81;5041363;28;20566;-75
2023/09/24 00:15:32;;;;;;;3.20;1.50;;;;;;;12.63;nan;100249.84;5038737;28;20723;-75
2023/09/24 00:17:59;;;;;;;2.95;1.38;;;;;;;12.59;nan;100250.97;5037103;28;20589;-75
2023/09/24 00:20:25;;;;;;;1.90;1.50;;;;;;;12.54;nan;100256.53;5036595;28;20209;-75
2023/09/24 00:22:51;;;;;;;2.22;1.23;;;;;;;12.49;nan;100252.47;5036144;28;20232;-76
2023/09/24 00:25:16;;;;;;;1.30;1.20;;;;;;;12.43;nan;100248.44;5030121;28;20613;-75
2023/09/24 00:27:42;;;;;;;1.43;1.33;;;;;;;12.38;nan;100263.69;5038130;28;20197;-75
2023/09/24 00:30:09;;;;;;;1.77;1.40;;;;;;;12.37;nan;100264.63;5020794;28;20217;-75
2023/09/24 00:32:35;;;;;;;1.65;1.30;;;;;;;12.39;nan;100268.00;5038626;28;20205;-75
2023/09/24 00:35:05;;;;;;;2.60;1.35;;;;;;;12.40;nan;100267.91;5028093;28;20198;-75
2023/09/24 00:37:32;;;;;;;2.80;2.30;;;;;;;12.43;nan;100266.03;5032260;28;20475;-75
2023/09/24 00:39:58;;;;;;;1.70;1.30;;;;;;;12.42;nan;100267.81;5016361;28;20210;-75
2023/09/24 00:42:27;;;;;;;1.93;1.50;;;;;;;12.38;nan;100266.31;5035586;28;20698;-75
2023/09/24 00:44:53;;;;;;;2.75;1.58;;;;;;;12.34;nan;100277.97;5034677;28;20448;-75
2023/09/24 00:47:18;;;;;;;2.03;1.70;;;;;;;12.28;nan;100276.53;5017932;28;20563;-75
2023/09/24 00:49:44;;;;;;;2.53;1.30;;;;;;;12.24;nan;100274.22;5035702;28;20220;-76
2023/09/24 00:52:13;;;;;;;1.50;1.30;;;;;;;12.09;nan;100263.63;5033794;28;20685;-75
2023/09/24 00:54:40;;;;;;;2.75;1.38;;;;;;;11.92;nan;100269.06;5034456;28;20206;-76
2023/09/24 00:57:06;;;;;;;1.80;1.30;;;;;;;11.73;nan;100269.25;5040058;28;20778;-75
2023/09/24 00:59:32;;;;;;;2.30;1.40;;;;;;;11.58;nan;100276.22;5018339;28;20205;-75
2023/09/24 01:01:58;;;;;;;2.10;1.20;;;;;;;11.49;nan;100279.38;5016449;28;20229;-75
2023/09/24 01:04:24;;;;;;;1.48;1.30;;;;;;;11.40;nan;100269.41;5022594;28;20263;-75
2023/09/24 01:06:50;;;;;;;1.75;1.40;;;;;;;11.37;nan;100280.06;5039221;28;20418;-75
2023/09/24 01:09:17;;;;;;;2.13;1.40;;;;;;;11.33;nan;100281.19;5040189;28;20565;-75
2023/09/24 01:11:42;;;;;;;3.40;1.27;;;;;;;11.23;nan;100271.19;5040096;28;20928;-75
2023/09/24 01:14:08;;;;;;;1.37;1.00;;;;;;;11.15;nan;100289.19;5036772;28;20860;-75
2023/09/24 01:16:33;;;;;;;1.50;1.10;;;;;;;11.06;nan;100281.78;5043774;28;20224;-75
2023/09/24 01:19:00;;;;;;;1.15;1.05;;;;;;;10.98;nan;100283.97;5022981;28;20198;-75
2023/09/24 01:21:27;;;;;;;1.50;1.10;;;;;;;10.91;nan;100290.50;5018587;28;20253;-75
2023/09/24 01:23:54;;;;;;;1.60;1.13;;;;;;;10.87;nan;100300.31;5038202;28;20225;-75
2023/09/24 01:26:22;;;;;;;3.92;1.38;;;;;;;10.82;nan;100290.06;5035489;28;20681;-75
2023/09/24 01:28:48;;;;;;;1.60;1.33;;;;;;;10.80;nan;100294.56;5041840;28;20490;-75
2023/09/24 01:31:15;;;;;;;1.57;1.40;;;;;;;10.82;nan;100286.59;5019149;28;20764;-74
2023/09/24 01:33:41;;;;;;;2.08;1.40;;;;;;;10.88;nan;100285.41;5041965;28;20184;-75
2023/09/24 01:36:10;;;;;;;1.83;1.50;;;;;;;10.91;nan;100283.47;5021822;28;21187;-75
2023/09/24 01:38:40;;;;;;;1.70;1.27;;;;;;;10.99;nan;100277.78;5033469;28;20597;-75
2023/09/24 01:41:09;;;;;;;2.65;1.60;;;;;;;11.05;nan;100280.09;5037099;28;20738;-74
2023/09/24 01:43:35;;;;;;;5.78;1.90;;;;;;;11.11;nan;100277.13;5041214;28;20194;-75
2023/09/24 01:46:05;;;;;;;1.70;1.60;;;;;;;11.17;nan;100271.50;5040966;28;20319;-75
2023/09/24 01:48:32;;;;;;;3.28;1.10;;;;;;;11.23;nan;100265.06;5031456;28;20647;-74
2023/09/24 01:50:59;;;;;;;2.30;1.50;;;;;;;11.27;nan;100264.81;5035400;28;20679;-75
2023/09/24 01:53:25;;;;;;;1.63;1.52;;;;;;;11.29;nan;100272.63;5020438;28;20729;-75
2023/09/24 01:55:52;;;;;;;3.00;1.60;;;;;;;11.28;nan;100269.13;5037734;28;20202;-75
2023/09/24 01:58:17;;;;;;;1.98;1.52;;;;;;;11.24;nan;100267.63;5020444;28;20279;-75
2023/09/24 02:00:44;;;;;;;2.23;1.97;;;;;;;11.22;nan;100268.63;5017947;28;20814;-75
2023/09/24 02:03:10;;;;;;;1.77;1.67;;;;;;;11.21;nan;100275.69;5037180;28;20209;-75
2023/09/24 02:05:42;;;;;;;1.48;1.27;;;;;;;11.22;nan;100277.38;5036704;28;20178;-75
2023/09/24 02:08:10;;;;;;;1.58;1.10;;;;;;;11.22;nan;100287.03;5035457;28;20186;-75
2023/09/24 02:10:40;;;;;;;3.25;1.60;;;;;;;11.21;nan;100293.25;5042077;28;20316;-74
2023/09/24 02:13:07;;;;;;;2.38;1.33;;;;;;;11.18;nan;100286.38;5042102;28;20224;-75
2023/09/24 02:15:33;;;;;;;2.97;1.50;;;;;;;11.18;nan;100288.13;5036740;28;20819;-75
2023/09/24 02:17:59;;;;;;;1.30;1.20;;;;;;;11.19;nan;100289.84;5035403;28;20268;-75
2023/09/24 02:20:32;;;;;;;2.53;1.57;;;;;;;11.20;nan;100284.47;5035610;28;20610;-75
2023/09/24 02:23:04;;;;;;;1.65;1.52;;;;;;;11.20;nan;100289.75;5037677;28;20475;-75
2023/09/24 02:25:32;;;;;;;1.75;1.40;;;;;;;11.17;nan;100291.72;5037451;28;20213;-76
2023/09/24 02:27:58;;;;;;;1.50;1.40;;;;;;;11.13;nan;100296.28;5039221;28;20266;-75
2023/09/24 02:30:28;;;;;;;1.80;1.70;;;;;;;11.12;nan;100297.22;5040952;28;20313;-75
2023/09/24 02:32:54;;;;;;;1.63;1.27;;;;;;;11.12;nan;100297.22;5032945;28;20194;-74
2023/09/24 02:35:19;;;;;;;2.05;1.50;;;;;;;11.10;nan;100296.47;5040390;28;20307;-75
2023/09/24 02:37:47;;;;;;;1.50;1.40;;;;;;;11.12;nan;100302.47;5039911;28;20205;-75
2023/09/24 02:40:15;;;;;;;3.30;1.27;;;;;;;11.12;nan;100310.34;5021266;28;20768;-75
2023/09/24 02:42:46;;;;;;;2.25;1.35;;;;;;;11.12;nan;100306.88;5036963;28;20213;-75
2023/09/24 02:45:15;;;;;;;2.95;1.40;;;;;;;11.07;nan;100312.38;5037741;28;20219;-75
2023/09/24 02:47:41;;;;;;;1.35;1.17;;;;;;;11.01;nan;100307.47;5018901;28;20285;-75
2023/09/24 02:50:08;;;;;;;1.50;1.38;;;;;;;10.96;nan;100307.72;5037070;28;20686;-75
2023/09/24 02:52:35;;;;;;;1.52;1.42;;;;;;;10.90;nan;100301.94;5018676;28;21161;-76
2023/09/24 02:55:01;;;;;;;2.10;1.30;;;;;;;10.81;nan;100306.75;5039374;28;20775;-75
2023/09/24 02:57:27;;;;;;;2.60;1.20;;;;;;;10.66;nan;100312.81;5019953;28;20213;-75
2023/09/24 02:59:53;;;;;;;4.25;1.23;;;;;;;10.51;nan;100314.50;5040536;28;20836;-75
2023/09/24 03:02:18;;;;;;;1.80;1.20;;;;;;;10.46;nan;100315.66;5016976;28;20749;-75
2023/09/24 03:04:43;;;;;;;1.47;1.37;;;;;;;10.45;nan;100313.94;5042324;28;20198;-75
2023/09/24 03:07:10;;;;;;;2.00;1.13;;;;;;;10.48;nan;100316.44;5036653;28;20192;-75
2023/09/24 03:09:35;;;;;;;1.65;1.20;;;;;;;10.47;nan;100312.09;5041869;28;20259;-74
2023/09/24 03:12:00;;;;;;;1.77;0.90;;;;;;;10.43;nan;100313.19;5034894;28;20663;-75
2023/09/24 03:14:26;;;;;;;1.17;1.03;;;;;;;10.39;nan;100315.97;5034738;28;20847;-75
2023/09/24 03:16:51;;;;;;;1.67;1.10;;;;;;;10.37;nan;100311.75;5040083;28;20515;-75
2023/09/24 03:19:18;;;;;;;2.88;1.10;;;;;;;10.36;nan;100316.13;5017417;28;20221;-75
2023/09/24 03:21:44;;;;;;;1.20;1.00;;;;;;;10.29;nan;100317.38;5033863;28;20205;-75
2023/09/24 03:24:14;;;;;;;0.90;0.80;;;;;;;10.24;nan;100321.13;5014748;28;20559;-75
2023/09/24 03:26:39;;;;;;;1.08;0.98;;;;;;;10.16;nan;100318.91;5018030;28;20189;-75
2023/09/24 03:29:05;;;;;;;1.40;1.00;;;;;;;10.11;nan;100326.16;5009371;28;20373;-75
2023/09/24 03:31:33;;;;;;;1.35;1.08;;;;;;;10.09;nan;100328.00;5017162;28;20202;-74
2023/09/24 03:34:00;;;;;;;1.40;1.10;;;;;;;10.11;nan;100327.00;5001052;28;20276;-75
2023/09/24 03:36:25;;;;;;;3.00;1.30;;;;;;;10.20;nan;100338.78;5015368;28;20480;-75
2023/09/24 03:38:51;;;;;;;1.70;1.60;;;;;;;10.26;nan;100327.13;5014051;28;20202;-75
2023/09/24 03:41:16;;;;;;;1.57;1.20;;;;;;;10.29;nan;100329.63;5020987;28;20198;-76
2023/09/24 03:43:42;;;;;;;1.60;1.42;;;;;;;10.28;nan;100331.41;5001503;28;20198;-75
2023/09/24 03:46:09;;;;;;;1.97;1.30;;;;;;;10.27;nan;100332.34;5001507;28;20523;-75
2023/09/24 03:48:35;;;;;;;1.65;1.30;;;;;;;10.28;nan;100327.94;5002826;28;20245;-74
2023/09/24 03:51:03;;;;;;;1.73;1.20;;;;;;;10.31;nan;100331.25;5000674;28;20655;-75
2023/09/24 03:53:28;;;;;;;2.65;2.45;;;;;;;10.35;nan;100327.56;5013201;28;20306;-75
2023/09/24 03:55:54;;;;;;;1.83;1.50;;;;;;;10.37;nan;100328.34;5019737;28;20190;-75
2023/09/24 03:58:19;;;;;;;1.30;1.20;;;;;;;10.39;nan;100331.72;4999105;28;20205;-75
2023/09/24 04:00:44;;;;;;;1.73;1.63;;;;;;;10.41;nan;100329.03;5015821;28;20234;-75
2023/09/24 04:03:10;;;;;;;3.33;1.47;;;;;;;10.39;nan;100334.34;5017774;28;20206;-75
2023/09/24 04:05:36;;;;;;;2.80;1.20;;;;;;;10.38;nan;100324.78;5017277;28;20265;-75
2023/09/24 04:08:03;;;;;;;2.97;2.03;;;;;;;10.38;nan;100332.66;5017659;28;20199;-74
2023/09/24 04:10:29;;;;;;;1.55;1.23;;;;;;;10.37;nan;100338.84;5022271;28;20225;-75
2023/09/24 04:12:55;;;;;;;4.77;1.50;;;;;;;10.38;nan;100340.53;5017457;28;20186;-75
2023/09/24 04:15:27;;;;;;;1.10;0.90;;;;;;;10.36;nan;100352.03;5013294;28;20460;-74
2023/09/24 04:17:56;;;;;;;3.92;1.27;;;;;;;10.24;nan;100342.97;5017913;28;20542;-74
2023/09/24 04:20:22;;;;;;;1.20;1.00;;;;;;;10.14;nan;100352.25;5016220;28;20222;-75
2023/09/24 04:22:47;;;;;;;1.00;0.90;;;;;;;10.04;nan;100362.34;5021166;28;20185;-75
2023/09/24 04:25:17;;;;;;;1.20;1.00;;;;;;;9.95;nan;100355.78;4998575;28;20525;-74
2023/09/24 04:27:43;;;;;;;0.73;0.70;;;;;;;9.91;nan;100356.00;5016478;28;20255;-74
2023/09/24 04:30:17;;;;;;;1.00;0.90;;;;;;;9.83;nan;100359.00;5028615;28;20691;-75
2023/09/24 04:32:51;;;;;;;1.17;0.93;;;;;;;9.72;nan;100356.03;5035291;28;20193;-75
2023/09/24 04:35:20;;;;;;;1.70;1.20;;;;;;;9.63;nan;100365.19;5030743;28;20436;-74
2023/09/24 04:37:47;;;;;;;1.77;1.50;;;;;;;9.53;nan;100364.81;5042196;28;20209;-75
2023/09/24 04:40:14;;;;;;;2.55;1.10;;;;;;;9.44;nan;100359.97;5040069;28;20200;-75
2023/09/24 04:42:44;;;;;;;1.60;0.88;;;;;;;9.34;nan;100370.97;5040779;28;20197;-74
2023/09/24 04:45:14;;;;;;;1.17;0.80;;;;;;;9.26;nan;100377.44;5039549;28;20255;-75
2023/09/24 04:47:40;;;;;;;1.88;0.88;;;;;;;9.20;nan;100382.09;5039030;28;20190;-75
2023/09/24 04:50:07;;;;;;;0.90;0.80;;;;;;;9.14;nan;100377.13;5043435;28;20670;-74
2023/09/24 04:52:33;;;;;;;1.00;0.90;;;;;;;9.07;nan;100384.41;5036786;28;20744;-74
2023/09/24 04:54:59;;;;;;;1.20;1.00;;;;;;;9.03;nan;100385.47;5037843;28;20247;-75
2023/09/24 04:57:25;;;;;;;0.80;0.80;;;;;;;8.98;nan;100385.66;5039521;28;20213;-74
2023/09/24 04:59:53;;;;;;;0.98;0.98;;;;;;;8.95;nan;100380.56;5041163;28;20252;-75
2023/09/24 05:02:23;;;;;;;1.00;0.90;;;;;;;8.95;nan;100393.66;5038369;28;20201;-75
2023/09/24 05:04:52;;;;;;;3.08;1.10;;;;;;;8.99;nan;100399.63;5039191;28;20229;-75
2023/09/24 05:07:18;;;;;;;0.95;0.82;;;;;;;9.02;nan;100402.13;5040017;28;20244;-75
2023/09/24 05:09:44;;;;;;;1.50;0.85;;;;;;;8.98;nan;100406.63;5040002;28;20213;-75
2023/09/24 05:12:10;;;;;;;1.20;0.90;;;;;;;8.95;nan;100406.78;5037991;28;20304;-74
2023/09/24 05:14:36;;;;;;;2.53;1.07;;;;;;;8.98;nan;100414.50;5043108;28;20577;-74
2023/09/24 05:17:01;;;;;;;1.40;1.20;;;;;;;9.02;nan;100416.06;5037989;28;21483;-74
2023/09/24 05:19:27;;;;;;;1.87;0.90;;;;;;;8.99;nan;100418.84;5043318;28;20229;-74
2023/09/24 05:21:52;;;;;;;4.87;1.00;;;;;;;8.98;nan;100421.50;5039256;28;20405;-74
2023/09/24 05:24:18;;;;;;;0.90;0.90;;;;;;;8.97;nan;100427.69;5041215;28;20205;-74
2023/09/24 05:26:44;;;;;;;1.10;1.00;;;;;;;8.98;nan;100434.59;5037078;28;20203;-74
2023/09/24 05:29:10;;;;;;;1.48;1.05;;;;;;;9.03;nan;100420.38;5037148;28;20217;-75
2023/09/24 05:31:35;;;;;;;1.13;1.03;;;;;;;9.12;nan;100436.63;5034736;28;20293;-74
2023/09/24 05:34:03;;;;;;;1.07;0.90;;;;;;;9.20;nan;100442.38;5042743;28;20324;-74
2023/09/24 05:36:28;;;;;;;1.45;1.10;;;;;;;9.28;nan;100448.13;5045969;28;20501;-74
2023/09/24 05:38:53;;;;;;;3.17;1.43;;;;;;;9.33;nan;100448.75;5040368;28;20706;-75
2023/09/24 05:41:19;;;;;;;2.30;1.10;;;;;;;9.38;nan;100445.94;5040012;28;20210;-75
2023/09/24 05:43:45;;;;;;;2.93;1.17;;;;;;;9.39;nan;100443.25;5037876;28;20793;-74
2023/09/24 05:46:11;;;;;;;1.50;1.00;;;;;;;9.43;nan;100444.81;5041476;28;20178;-74
2023/09/24 05:48:37;;;;;;;11.43;1.75;;;;;;;9.46;nan;100442.06;5040694;28;20696;-75
2023/09/24 05:51:04;;;;;;;1.60;1.47;;;;;;;9.51;nan;100447.94;5044405;28;21192;-75
2023/09/24 05:53:29;;;;;;;0.82;0.82;;;;;;;9.52;nan;100454.03;5044256;28;20702;-74
2023/09/24 05:55:55;;;;;;;1.90;1.40;;;;;;;9.44;nan;100458.78;5036469;28;20190;-74
2023/09/24 05:58:21;;;;;;;1.10;0.90;;;;;;;9.33;nan;100446.16;5040061;28;20251;-74
2023/09/24 06:00:47;;;;;;;1.00;1.00;;;;;;;9.25;nan;100456.13;5040153;28;20453;-74
2023/09/24 06:03:14;;;;;;;1.17;0.80;;;;;;;9.23;nan;100460.56;5038849;28;20197;-74
2023/09/24 06:05:40;;;;;;;0.80;0.80;;;;;;;9.28;nan;100458.59;5035845;28;20177;-74
2023/09/24 06:08:07;;;;;;;0.82;0.70;;;;;;;9.35;nan;100461.81;5044628;28;20205;-75
2023/09/24 06:10:34;;;;;;;1.15;1.02;;;;;;;9.40;nan;100458.06;5039119;28;20707;-74
2023/09/24 06:13:00;;;;;;;1.60;1.00;;;;;;;9.46;nan;100460.41;5036382;28;20208;-74
2023/09/24 06:15:26;;;;;;;1.30;1.20;;;;;;;9.57;nan;100461.69;5023730;28;20558;-76
2023/09/24 06:17:51;;;;;;;5.00;1.27;;;;;;;9.66;nan;100456.84;5036550;28;20205;-76
2023/09/24 06:20:17;;;;;;;1.30;1.10;;;;;;;9.75;nan;100459.06;5039790;28;20233;-76
2023/09/24 06:22:45;;;;;;;2.17;1.27;;;;;;;9.84;nan;100449.91;5034832;28;20201;-76
2023/09/24 06:25:11;;;;;;;2.47;1.38;;;;;;;9.94;nan;100453.81;5034678;28;20202;-76
2023/09/24 06:27:37;;;;;;;1.73;1.40;;;;;;;10.04;nan;100454.19;5037426;28;20276;-76
2023/09/24 06:30:04;;;;;;;1.70;1.20;;;;;;;10.12;nan;100459.09;5036197;28;20309;-76
2023/09/24 06:32:30;;;;;;;1.73;1.50;;;;;;;10.21;nan;100456.03;5038316;28;20224;-76
2023/09/24 06:34:55;;;;;;;2.30;1.40;;;;;;;10.32;nan;100456.41;5040612;28;20190;-76
2023/09/24 06:37:20;;;;;;;1.93;1.70;;;;;;;10.45;nan;100454.03;5038710;28;20470;-76
2023/09/24 06:39:46;;;;;;;4.53;1.90;;;;;;;10.53;nan;100459.75;5037937;28;20804;-76
2023/09/24 06:42:11;;;;;;;1.87;1.30;;;;;;;10.58;nan;100456.88;5036626;28;20558;-76
2023/09/24 06:44:37;;;;;;;2.77;2.00;;;;;;;10.60;nan;100469.00;5020215;28;20233;-76
2023/09/24 06:47:02;;;;;;;1.53;1.30;;;;;;;10.66;nan;100465.22;5043638;28;20205;-76
2023/09/24 06:49:28;;;;;;;1.97;1.70;;;;;;;10.74;nan;100472.72;5035790;28;20279;-76
2023/09/24 06:51:53;;;;;;;2.83;1.33;;;;;;;10.81;nan;100464.44;5041551;28;20198;-76
2023/09/24 06:54:20;;;;;;;1.13;1.03;;;;;;;10.93;nan;100472.63;5038679;28;20627;-76
2023/09/24 06:56:45;;;;;;;2.00;1.10;;;;;;;11.01;nan;100463.41;5043117;28;20225;-76
2023/09/24 06:59:11;;;;;;;1.30;1.20;;;;;;;11.08;nan;100464.81;5039605;28;20201;-76
2023/09/24 07:01:37;;;;;;;1.53;1.30;;;;;;;11.13;nan;100454.06;5040490;28;20194;-76
2023/09/24 07:04:04;;;;;;;1.30;1.10;;;;;;;11.16;nan;100450.41;5021663;28;20181;-76
2023/09/24 07:06:30;;;;;;;1.80;1.70;;;;;;;11.23;nan;100455.28;5036460;28;20428;-76
2023/09/24 07:08:56;;;;;;;3.17;1.57;;;;;;;11.35;nan;100452.91;5041282;28;20459;-76
2023/09/24 07:11:22;;;;;;;2.63;1.60;;;;;;;11.42;nan;100457.78;5042777;28;20205;-76
2023/09/24 07:13:47;;;;;;;1.80;1.70;;;;;;;11.47;nan;100452.25;5021102;28;20529;-76
2023/09/24 07:16:13;;;;;;;2.57;1.70;;;;;;;11.43;nan;100464.72;5036161;28;20218;-76
2023/09/24 07:18:39;;;;;;;5.63;2.30;;;;;;;11.47;nan;100462.78;5040563;28;20206;-76
2023/09/24 07:21:05;;;;;;;3.43;2.10;;;;;;;11.51;nan;100461.69;5016487;28;20316;-76
2023/09/24 07:23:30;;;;;;;3.67;1.80;;;;;;;11.60;nan;100458.56;5034332;28;20215;-76
2023/09/24 07:25:55;;;;;;;1.97;1.50;;;;;;;11.61;nan;100456.75;5040443;28;20635;-76
2023/09/24 07:28:24;;;;;;;3.60;1.80;;;;;;;11.67;nan;100459.94;5035829;28;20853;-76
2023/09/24 07:30:50;;;;;;;3.47;2.25;;;;;;;11.74;nan;100463.91;5032131;28;20686;-76
2023/09/24 07:33:15;;;;;;;3.08;2.53;;;;;;;11.78;nan;100461.13;5032956;28;20509;-76
2023/09/24 07:35:41;;;;;;;2.60;2.40;;;;;;;11.90;nan;100457.84;5039443;28;20720;-78
2023/09/24 07:38:06;;;;;;;6.97;2.47;;;;;;;12.03;nan;100458.00;5039581;28;20201;-76
2023/09/24 07:40:32;;;;;;;2.40;2.20;;;;;;;12.20;nan;100467.59;5034904;28;20232;-77
2023/09/24 07:42:57;;;;;;;3.20;2.00;;;;;;;12.33;nan;100464.16;5040865;28;20284;-76
2023/09/24 07:45:23;;;;;;;5.33;2.27;;;;;;;12.50;nan;100462.34;5036548;28;20227;-76
2023/09/24 07:47:48;;;;;;;4.77;2.43;;;;;;;12.99;nan;100473.50;5038018;28;20734;-76
2023/09/24 07:50:14;;;;;;;2.30;2.03;;;;;;;13.94;nan;100466.81;5037039;28;20475;-76
2023/09/24 07:52:39;;;;;;;4.30;1.77;;;;;;;14.99;nan;100452.84;5039018;28;20448;-76
2023/09/24 07:55:06;;;;;;;2.20;1.57;;;;;;;16.03;nan;100448.13;5042625;28;20231;-76
2023/09/24 07:57:31;;;;;;;3.47;1.75;;;;;;;16.90;nan;100448.72;5035187;28;20205;-76
2023/09/24 07:59:57;;;;;;;2.60;1.53;;;;;;;17.75;nan;100437.66;5036676;28;20200;-76
2023/09/24 08:02:22;;;;;;;3.43;1.63;;;;;;;18.52;nan;100429.59;5039582;28;20699;-76
2023/09/24 08:04:48;;;;;;;1.63;1.20;;;;;;;19.26;nan;100435.78;5035786;28;20241;-77
2023/09/24 08:07:13;;;;;;;2.50;1.43;;;;;;;19.81;nan;100442.44;5037886;28;20225;-76
2023/09/24 08:09:40;;;;;;;4.20;1.10;;;;;;;20.19;nan;100450.66;5038128;28;20286;-77
2023/09/24 08:12:06;;;;;;;2.13;1.50;;;;;;;20.41;nan;100437.03;5047453;28;20197;-76
2023/09/24 08:14:33;;;;;;;2.20;1.50;;;;;;;20.37;nan;100440.16;5048291;28;20998;-76
2023/09/24 08:16:58;;;;;;;2.07;1.60;;;;;;;20.35;nan;100445.63;5055744;28;20916;-76
2023/09/24 08:19:30;;;;;;;2.60;1.60;;;;;;;20.46;nan;100450.81;5042875;28;20463;-76
2023/09/24 08:21:56;;;;;;;1.87;1.50;;;;;;;20.86;nan;100432.97;5046215;28;20185;-78
2023/09/24 08:24:22;;;;;;;2.53;1.90;;;;;;;21.25;nan;100439.00;5046325;28;20527;-77
2023/09/24 08:26:47;;;;;;;2.77;2.13;;;;;;;21.59;nan;100441.16;5044228;28;20511;-77
2023/09/24 08:29:13;;;;;;;2.90;1.77;;;;;;;21.91;nan;100437.19;5045309;28;20287;-77
2023/09/24 08:31:38;;;;;;;2.20;1.50;;;;;;;22.09;nan;100449.59;5044986;28;20764;-77
2023/09/24 08:34:04;;;;;;;2.67;1.33;;;;;;;22.43;nan;100437.41;5041849;28;20183;-77
2023/09/24 08:36:29;;;;;;;2.30;1.53;;;;;;;22.73;nan;100445.00;5038810;28;20252;-77
2023/09/24 08:38:56;;;;;;;2.90;2.70;;;;;;;23.03;nan;100444.72;5043286;28;22794;-77
2023/09/24 08:41:21;;;;;;;4.50;1.93;;;;;;;23.13;nan;100440.09;5044558;28;20198;-77
2023/09/24 08:43:46;;;;;;;3.57;2.47;;;;;;;23.17;nan;100439.66;5047420;28;20783;-77
2023/09/24 08:46:12;;;;;;;3.60;1.50;;;;;;;23.15;nan;100438.94;5041563;28;20201;-77
2023/09/24 08:48:39;;;;;;;3.10;1.80;;;;;;;23.14;nan;100436.41;5043515;28;20194;-77
2023/09/24 08:51:07;;;;;;;2.37;1.73;;;;;;;23.10;nan;100438.59;5042337;28;20237;-77
2023/09/24 08:53:34;;;;;;;2.80;2.00;;;;;;;23.11;nan;100437.56;5045052;28;20451;-77
2023/09/24 08:55:59;;;;;;;8.63;2.63;;;;;;;23.15;nan;100436.28;5040193;28;20464;-77
2023/09/24 08:58:25;;;;;;;1.97;1.30;;;;;;;23.01;nan;100428.84;5041314;28;20714;-77
2023/09/24 09:00:51;;;;;;;1.60;1.50;;;;;;;22.80;nan;100434.50;5043110;28;20573;-77
2023/09/24 09:03:17;;;;;;;2.27;1.77;;;;;;;22.56;nan;100435.16;5043202;28;20463;-77
2023/09/24 09:05:44;;;;;;;2.03;1.63;;;;;;;22.39;nan;100431.50;5041861;28;20268;-77
2023/09/24 09:08:11;;;;;;;2.07;1.43;;;;;;;22.04;nan;100433.16;5042681;28;20439;-78
2023/09/24 09:10:37;;;;;;;2.13;1.83;;;;;;;21.74;nan;100431.66;5045095;28;20545;-77
2023/09/24 09:13:04;;;;;;;2.00;1.40;;;;;;;21.45;nan;100421.13;5042317;28;20466;-77
2023/09/24 09:15:30;;;;;;;1.43;1.20;;;;;;;21.22;nan;100420.59;5043289;28;20456;-77
2023/09/24 09:17:55;;;;;;;2.77;1.90;;;;;;;21.00;nan;100414.63;5038968;28;20494;-77
2023/09/24 09:20:40;;;;;;;2.87;1.43;;;;;;;20.72;nan;100418.22;5038890;28;20201;-77
2023/09/24 09:23:11;;;;;;;1.87;1.30;;;;;;;20.51;nan;100413.03;5039270;28;20674;-77
2023/09/24 09:25:52;;;;;;;1.93;1.30;;;;;;;20.29;nan;100412.34;5040834;28;20456;-77
2023/09/24 09:28:28;;;;;;;4.30;1.47;;;;;;;20.11;nan;100409.50;5041513;28;20439;-77
2023/09/24 09:31:12;;;;;;;2.00;1.40;;;;;;;20.07;nan;100408.13;5028167;28;20991;-77
2023/09/24 09:33:44;;;;;;;3.63;1.50;;;;;;;20.10;nan;100410.50;5042456;28;20433;-77
2023/09/24 09:36:24;;;;;;;2.40;1.73;;;;;;;20.21;nan;100414.03;5037424;28;20556;-76
2023/09/24 09:38:53;;;;;;;1.80;1.50;;;;;;;20.25;nan;100407.41;5040524;28;20573;-77
2023/09/24 09:41:20;;;;;;;1.93;1.40;;;;;;;20.26;nan;100407.28;5043601;28;21238;-78
2023/09/24 09:43:47;;;;;;;2.53;1.40;;;;;;;20.24;nan;100405.75;5044311;28;20444;-78
2023/09/24 09:46:18;;;;;;;1.20;1.10;;;;;;;20.27;nan;100400.13;5041969;28;20439;-78
2023/09/24 09:48:53;;;;;;;2.57;1.30;;;;;;;20.25;nan;100399.41;5041133;28;20583;-78
2023/09/24 09:51:20;;;;;;;1.60;1.10;;;;;;;20.25;nan;100399.41;5043906;28;20479;-78
2023/09/24 09:53:45;;;;;;;1.93;1.70;;;;;;;20.24;nan;100395.91;5045024;28;20535;-77
2023/09/24 09:56:11;;;;;;;1.23;1.13;;;;;;;20.26;nan;100396.63;5041723;28;20556;-77
2023/09/24 09:58:37;;;;;;;2.13;1.60;;;;;;;20.37;nan;100390.28;5042501;28;20194;-76
2023/09/24 10:01:07;;;;;;;1.80;1.50;;;;;;;20.45;nan;100389.59;5047701;28;20277;-77
2023/09/24 10:03:35;;;;;;;1.40;1.20;;;;;;;20.57;nan;100387.63;5041849;28;20393;-77
2023/09/24 10:06:03;;;;;;;3.50;1.60;;;;;;;20.54;nan;100386.91;5038065;28;20430;-77
2023/09/24 10:08:49;;;;;;;1.57;1.20;;;;;;;20.54;nan;100381.59;5043281;28;20476;-77
2023/09/24 10:11:33;;;;;;;4.40;1.60;;;;;;;20.61;nan;100381.03;5046684;28;20831;-77
2023/09/24 10:14:00;;;;;;;2.43;1.20;;;;;;;20.58;nan;100378.63;5040520;28;20420;-77
2023/09/24 10:16:25;;;;;;;2.17;1.40;;;;;;;20.53;nan;100369.22;5039388;28;20467;-77
2023/09/24 10:18:54;;;;;;;1.53;1.03;;;;;;;20.50;nan;100368.66;5038232;28;21001;-77
2023/09/24 10:21:31;;;;;;;4.57;1.70;;;;;;;20.48;nan;100366.13;5043133;28;20202;-77
2023/09/24 10:24:17;;;;;;;4.57;1.73;;;;;;;20.50;nan;100361.47;5042092;28;20546;-77
2023/09/24 10:27:03;;;;;;;2.90;1.50;;;;;;;20.60;nan;100361.47;5027335;28;20991;-77
2023/09/24 10:29:51;;;;;;;1.27;1.10;;;;;;;20.70;nan;100356.97;5042803;28;21012;-77
2023/09/24 10:32:23;;;;;;;2.83;1.60;;;;;;;20.75;nan;100353.88;5039395;28;20443;-76
2023/09/24 10:34:52;;;;;;;1.80;1.37;;;;;;;20.85;nan;100354.69;5039618;28;20454;-77
2023/09/24 10:37:20;;;;;;;1.70;1.30;;;;;;;20.81;nan;100353.28;5038826;28;20665;-76
2023/09/24 10:40:09;;;;;;;3.43;1.43;;;;;;;20.83;nan;100340.63;5047247;28;20983;-77
2023/09/24 10:42:39;;;;;;;1.90;1.30;;;;;;;20.93;nan;100340.59;5043819;28;20440;-78
2023/09/24 10:45:07;;;;;;;1.27;1.17;;;;;;;21.05;nan;100334.06;5042433;28;20424;-78
2023/09/24 10:47:36;;;;;;;2.90;1.30;;;;;;;21.10;nan;100331.81;5041703;28;20922;-79
2023/09/24 10:50:03;;;;;;;1.40;1.20;;;;;;;21.15;nan;100326.03;5040605;28;20442;-78
2023/09/24 10:52:45;;;;;;;2.93;1.30;;;;;;;21.19;nan;100330.06;5044725;28;20479;-78
2023/09/24 10:55:11;;;;;;;2.03;1.40;;;;;;;21.22;nan;100324.41;5039098;28;20446;-75
2023/09/24 10:57:37;;;;;;;0.90;0.80;;;;;;;21.27;nan;100318.63;5041770;28;20539;-78
2023/09/24 11:00:03;;;;;;;1.63;1.10;;;;;;;21.34;nan;100319.75;5039796;28;20204;-77
2023/09/24 11:02:28;;;;;;;1.20;1.10;;;;;;;21.38;nan;100313.94;5036728;28;20429;-79
2023/09/24 11:04:53;;;;;;;1.90;1.20;;;;;;;21.39;nan;100312.16;5048228;28;20963;-78
2023/09/24 11:07:19;;;;;;;2.90;1.43;;;;;;;21.43;nan;100309.00;5042317;28;20219;-78
2023/09/24 11:09:49;;;;;;;1.30;1.13;;;;;;;21.50;nan;100306.59;5034498;28;20212;-77
2023/09/24 11:12:15;;;;;;;1.77;1.03;;;;;;;21.52;nan;100304.59;5038565;28;20659;-77
2023/09/24 11:14:40;;;;;;;1.70;1.10;;;;;;;21.48;nan;100305.06;5041480;28;20938;-77
2023/09/24 11:17:06;;;;;;;1.47;1.07;;;;;;;21.41;nan;100303.00;5045976;28;21022;-77
2023/09/24 11:19:48;;;;;;;4.40;1.37;;;;;;;21.36;nan;100293.69;5023698;28;20423;-77
2023/09/24 11:22:18;;;;;;;1.67;1.30;;;;;;;21.29;nan;100285.44;5035516;28;20430;-77
2023/09/24 11:24:44;;;;;;;2.40;1.10;;;;;;;21.23;nan;100296.72;5036981;28;20476;-77
2023/09/24 11:27:10;;;;;;;2.67;1.23;;;;;;;21.20;nan;100289.03;5038861;28;21077;-77
2023/09/24 11:29:35;;;;;;;2.53;2.07;;;;;;;21.21;nan;100285.34;5039951;28;20493;-77
2023/09/24 11:32:02;;;;;;;4.10;1.87;;;;;;;21.23;nan;100282.53;5043435;28;20208;-79
2023/09/24 11:34:29;;;;;;;1.20;1.00;;;;;;;21.22;nan;100281.69;5049258;28;20752;-78
2023/09/24 11:36:55;;;;;;;6.00;1.30;;;;;;;21.26;nan;100288.41;5049000;28;20478;-79
2023/09/24 11:39:24;;;;;;;1.40;1.20;;;;;;;21.25;nan;100284.03;5030865;28;20417;-81
2023/09/24 11:41:50;;;;;;;1.90;1.60;;;;;;;21.31;nan;100279.97;5052973;28;20468;-79
2023/09/24 11:44:16;;;;;;;2.47;1.63;;;;;;;21.36;nan;100272.31;5051494;28;21083;-79